sensor_id;sensor_type;location;lat;lon;timestamp;P1;durP1;ratioP1;P2;durP2;ratioP2
15635;SDS011;7917;50.818;6.972;2023-02-21T00:01:42;37.05;;;20.25;;
15635;SDS011;7917;50.818;6.972;2023-02-21T00:04:27;35.38;;;20.08;;
15635;SDS011;7917;50.818;6.972;2023-02-21T00:07:12;37.70;;;21.10;;
15635;SDS011;7917;50.818;6.972;2023-02-21T00:09:57;37.38;;;20.75;;
15635;SDS011;7917;50.818;6.972;2023-02-21T00:12:41;37.15;;;20.40;;
15635;SDS011;7917;50.818;6.972;2023-02-21T00:15:26;37.60;;;21.65;;
15635;SDS011;7917;50.818;6.972;2023-02-21T00:18:11;40.50;;;21.42;;
15635;SDS011;7917;50.818;6.972;2023-02-21T00:20:55;36.63;;;21.67;;
15635;SDS011;7917;50.818;6.972;2023-02-21T00:23:49;38.50;;;20.77;;
15635;SDS011;7917;50.818;6.972;2023-02-21T00:26:35;37.15;;;20.85;;
15635;SDS011;7917;50.818;6.972;2023-02-21T00:29:19;36.03;;;21.27;;
15635;SDS011;7917;50.818;6.972;2023-02-21T00:32:04;38.70;;;21.20;;
15635;SDS011;7917;50.818;6.972;2023-02-21T00:34:49;39.63;;;21.45;;
15635;SDS011;7917;50.818;6.972;2023-02-21T00:37:34;35.00;;;21.40;;
15635;SDS011;7917;50.818;6.972;2023-02-21T00:40:19;40.08;;;21.80;;
15635;SDS011;7917;50.818;6.972;2023-02-21T00:43:04;35.70;;;20.63;;
15635;SDS011;7917;50.818;6.972;2023-02-21T00:45:49;39.33;;;22.10;;
15635;SDS011;7917;50.818;6.972;2023-02-21T00:48:37;36.03;;;21.13;;
15635;SDS011;7917;50.818;6.972;2023-02-21T00:51:21;38.53;;;22.20;;
15635;SDS011;7917;50.818;6.972;2023-02-21T00:54:06;40.40;;;21.77;;
15635;SDS011;7917;50.818;6.972;2023-02-21T00:56:51;37.97;;;19.95;;
15635;SDS011;7917;50.818;6.972;2023-02-21T00:59:36;36.85;;;21.67;;
15635;SDS011;7917;50.818;6.972;2023-02-21T01:02:20;39.55;;;22.60;;
15635;SDS011;7917;50.818;6.972;2023-02-21T01:05:05;37.47;;;22.08;;
15635;SDS011;7917;50.818;6.972;2023-02-21T01:07:50;42.13;;;23.05;;
15635;SDS011;7917;50.818;6.972;2023-02-21T01:10:34;40.40;;;23.25;;
15635;SDS011;7917;50.818;6.972;2023-02-21T01:13:19;35.33;;;22.10;;
15635;SDS011;7917;50.818;6.972;2023-02-21T01:16:05;45.47;;;23.08;;
15635;SDS011;7917;50.818;6.972;2023-02-21T01:18:50;37.10;;;21.08;;
15635;SDS011;7917;50.818;6.972;2023-02-21T01:21:35;39.47;;;23.52;;
15635;SDS011;7917;50.818;6.972;2023-02-21T01:24:19;36.72;;;21.17;;
15635;SDS011;7917;50.818;6.972;2023-02-21T01:27:04;39.13;;;22.10;;
15635;SDS011;7917;50.818;6.972;2023-02-21T01:29:50;42.92;;;24.52;;
15635;SDS011;7917;50.818;6.972;2023-02-21T01:32:34;43.25;;;22.77;;
15635;SDS011;7917;50.818;6.972;2023-02-21T01:35:19;38.00;;;22.08;;
15635;SDS011;7917;50.818;6.972;2023-02-21T01:38:04;41.15;;;22.70;;
15635;SDS011;7917;50.818;6.972;2023-02-21T01:40:48;40.15;;;21.83;;
15635;SDS011;7917;50.818;6.972;2023-02-21T01:43:36;45.20;;;23.25;;
15635;SDS011;7917;50.818;6.972;2023-02-21T01:46:22;39.08;;;21.90;;
15635;SDS011;7917;50.818;6.972;2023-02-21T01:49:08;40.53;;;21.88;;
15635;SDS011;7917;50.818;6.972;2023-02-21T01:51:55;36.90;;;21.67;;
15635;SDS011;7917;50.818;6.972;2023-02-21T01:54:43;37.67;;;22.42;;
15635;SDS011;7917;50.818;6.972;2023-02-21T01:57:31;39.33;;;21.52;;
15635;SDS011;7917;50.818;6.972;2023-02-21T02:00:17;38.20;;;22.50;;
15635;SDS011;7917;50.818;6.972;2023-02-21T02:03:03;43.83;;;23.45;;
15635;SDS011;7917;50.818;6.972;2023-02-21T02:05:50;38.80;;;22.90;;
15635;SDS011;7917;50.818;6.972;2023-02-21T02:08:37;37.58;;;21.98;;
15635;SDS011;7917;50.818;6.972;2023-02-21T02:11:36;36.35;;;20.83;;
15635;SDS011;7917;50.818;6.972;2023-02-21T02:14:43;39.33;;;22.38;;
15635;SDS011;7917;50.818;6.972;2023-02-21T02:17:20;39.65;;;21.88;;
15635;SDS011;7917;50.818;6.972;2023-02-21T02:20:02;38.72;;;21.77;;
15635;SDS011;7917;50.818;6.972;2023-02-21T02:23:05;39.83;;;21.70;;
15635;SDS011;7917;50.818;6.972;2023-02-21T02:25:55;35.70;;;21.55;;
15635;SDS011;7917;50.818;6.972;2023-02-21T02:28:41;40.33;;;22.17;;
15635;SDS011;7917;50.818;6.972;2023-02-21T02:31:29;38.80;;;21.33;;
15635;SDS011;7917;50.818;6.972;2023-02-21T02:34:21;40.00;;;21.38;;
15635;SDS011;7917;50.818;6.972;2023-02-21T02:36:56;39.22;;;23.42;;
15635;SDS011;7917;50.818;6.972;2023-02-21T02:39:30;42.22;;;23.20;;
15635;SDS011;7917;50.818;6.972;2023-02-21T02:42:06;42.22;;;24.15;;
15635;SDS011;7917;50.818;6.972;2023-02-21T02:44:41;43.42;;;26.52;;
15635;SDS011;7917;50.818;6.972;2023-02-21T02:47:18;43.85;;;25.60;;
15635;SDS011;7917;50.818;6.972;2023-02-21T02:49:48;44.08;;;25.05;;
15635;SDS011;7917;50.818;6.972;2023-02-21T02:52:17;41.95;;;24.65;;
15635;SDS011;7917;50.818;6.972;2023-02-21T02:54:44;45.35;;;24.02;;
15635;SDS011;7917;50.818;6.972;2023-02-21T02:57:20;41.72;;;24.73;;
15635;SDS011;7917;50.818;6.972;2023-02-21T02:59:47;39.65;;;22.92;;
15635;SDS011;7917;50.818;6.972;2023-02-21T03:02:18;39.80;;;24.15;;
15635;SDS011;7917;50.818;6.972;2023-02-21T03:05:09;38.75;;;23.05;;
15635;SDS011;7917;50.818;6.972;2023-02-21T03:07:49;38.65;;;22.88;;
15635;SDS011;7917;50.818;6.972;2023-02-21T03:10:26;46.15;;;25.60;;
15635;SDS011;7917;50.818;6.972;2023-02-21T03:13:53;40.33;;;22.67;;
15635;SDS011;7917;50.818;6.972;2023-02-21T03:16:28;37.80;;;24.98;;
15635;SDS011;7917;50.818;6.972;2023-02-21T03:19:00;37.60;;;22.20;;
15635;SDS011;7917;50.818;6.972;2023-02-21T03:21:33;42.78;;;23.13;;
15635;SDS011;7917;50.818;6.972;2023-02-21T03:24:04;39.58;;;23.88;;
15635;SDS011;7917;50.818;6.972;2023-02-21T03:26:34;38.05;;;21.85;;
15635;SDS011;7917;50.818;6.972;2023-02-21T03:29:03;32.83;;;21.50;;
15635;SDS011;7917;50.818;6.972;2023-02-21T03:31:31;42.70;;;22.52;;
15635;SDS011;7917;50.818;6.972;2023-02-21T03:34:04;37.30;;;21.58;;
15635;SDS011;7917;50.818;6.972;2023-02-21T03:36:31;41.03;;;22.92;;
15635;SDS011;7917;50.818;6.972;2023-02-21T03:38:58;39.15;;;22.23;;
15635;SDS011;7917;50.818;6.972;2023-02-21T03:41:25;38.80;;;22.83;;
15635;SDS011;7917;50.818;6.972;2023-02-21T03:43:51;40.65;;;23.58;;
15635;SDS011;7917;50.818;6.972;2023-02-21T03:46:18;37.30;;;22.27;;
15635;SDS011;7917;50.818;6.972;2023-02-21T03:48:46;42.55;;;23.08;;
15635;SDS011;7917;50.818;6.972;2023-02-21T03:51:12;39.30;;;21.60;;
15635;SDS011;7917;50.818;6.972;2023-02-21T03:53:39;35.95;;;22.25;;
15635;SDS011;7917;50.818;6.972;2023-02-21T03:56:06;38.05;;;21.90;;
15635;SDS011;7917;50.818;6.972;2023-02-21T03:58:33;38.80;;;20.48;;
15635;SDS011;7917;50.818;6.972;2023-02-21T04:00:59;42.53;;;23.50;;
15635;SDS011;7917;50.818;6.972;2023-02-21T04:03:25;33.85;;;20.90;;
15635;SDS011;7917;50.818;6.972;2023-02-21T04:05:53;43.35;;;22.13;;
15635;SDS011;7917;50.818;6.972;2023-02-21T04:08:19;36.13;;;20.75;;
15635;SDS011;7917;50.818;6.972;2023-02-21T04:10:46;32.78;;;20.63;;
15635;SDS011;7917;50.818;6.972;2023-02-21T04:13:13;34.80;;;19.13;;
15635;SDS011;7917;50.818;6.972;2023-02-21T04:15:39;38.17;;;19.73;;
15635;SDS011;7917;50.818;6.972;2023-02-21T04:18:06;39.58;;;21.30;;
15635;SDS011;7917;50.818;6.972;2023-02-21T04:20:33;38.67;;;20.50;;
15635;SDS011;7917;50.818;6.972;2023-02-21T04:23:00;33.90;;;19.48;;
15635;SDS011;7917;50.818;6.972;2023-02-21T04:25:26;39.13;;;22.05;;
15635;SDS011;7917;50.818;6.972;2023-02-21T04:27:53;37.45;;;20.88;;
15635;SDS011;7917;50.818;6.972;2023-02-21T04:30:25;33.28;;;19.50;;
15635;SDS011;7917;50.818;6.972;2023-02-21T04:32:52;36.30;;;20.70;;
15635;SDS011;7917;50.818;6.972;2023-02-21T04:35:19;37.38;;;19.90;;
15635;SDS011;7917;50.818;6.972;2023-02-21T04:37:46;39.53;;;21.02;;
15635;SDS011;7917;50.818;6.972;2023-02-21T04:40:15;34.75;;;20.23;;
15635;SDS011;7917;50.818;6.972;2023-02-21T04:42:42;34.65;;;19.25;;
15635;SDS011;7917;50.818;6.972;2023-02-21T04:45:10;37.47;;;18.70;;
15635;SDS011;7917;50.818;6.972;2023-02-21T04:47:36;35.25;;;18.83;;
15635;SDS011;7917;50.818;6.972;2023-02-21T04:50:03;36.22;;;19.00;;
15635;SDS011;7917;50.818;6.972;2023-02-21T04:52:31;36.35;;;18.90;;
15635;SDS011;7917;50.818;6.972;2023-02-21T04:54:57;37.17;;;20.13;;
15635;SDS011;7917;50.818;6.972;2023-02-21T04:57:24;37.42;;;20.75;;
15635;SDS011;7917;50.818;6.972;2023-02-21T04:59:54;36.55;;;18.75;;
15635;SDS011;7917;50.818;6.972;2023-02-21T05:02:22;37.53;;;19.48;;
15635;SDS011;7917;50.818;6.972;2023-02-21T05:04:49;36.20;;;19.80;;
15635;SDS011;7917;50.818;6.972;2023-02-21T05:07:15;33.78;;;19.75;;
15635;SDS011;7917;50.818;6.972;2023-02-21T05:09:42;34.60;;;18.35;;
15635;SDS011;7917;50.818;6.972;2023-02-21T05:12:15;31.05;;;18.15;;
15635;SDS011;7917;50.818;6.972;2023-02-21T05:14:41;32.33;;;17.95;;
15635;SDS011;7917;50.818;6.972;2023-02-21T05:17:07;34.50;;;18.50;;
15635;SDS011;7917;50.818;6.972;2023-02-21T05:19:35;31.58;;;17.38;;
15635;SDS011;7917;50.818;6.972;2023-02-21T05:22:01;34.53;;;17.45;;
15635;SDS011;7917;50.818;6.972;2023-02-21T05:24:31;31.02;;;17.80;;
15635;SDS011;7917;50.818;6.972;2023-02-21T05:26:57;31.33;;;16.42;;
15635;SDS011;7917;50.818;6.972;2023-02-21T05:29:24;31.38;;;16.98;;
15635;SDS011;7917;50.818;6.972;2023-02-21T05:31:50;31.30;;;17.80;;
15635;SDS011;7917;50.818;6.972;2023-02-21T05:34:18;31.88;;;16.88;;
15635;SDS011;7917;50.818;6.972;2023-02-21T05:36:45;33.28;;;17.90;;
15635;SDS011;7917;50.818;6.972;2023-02-21T05:39:11;33.33;;;17.60;;
15635;SDS011;7917;50.818;6.972;2023-02-21T05:41:38;36.58;;;18.60;;
15635;SDS011;7917;50.818;6.972;2023-02-21T05:44:10;32.97;;;18.30;;
15635;SDS011;7917;50.818;6.972;2023-02-21T05:46:36;36.28;;;16.83;;
15635;SDS011;7917;50.818;6.972;2023-02-21T05:49:03;31.40;;;16.98;;
15635;SDS011;7917;50.818;6.972;2023-02-21T05:51:32;32.47;;;17.80;;
15635;SDS011;7917;50.818;6.972;2023-02-21T05:54:00;33.53;;;17.38;;
15635;SDS011;7917;50.818;6.972;2023-02-21T05:56:27;30.15;;;16.92;;
15635;SDS011;7917;50.818;6.972;2023-02-21T05:58:53;31.13;;;17.42;;
15635;SDS011;7917;50.818;6.972;2023-02-21T06:01:19;31.60;;;17.15;;
15635;SDS011;7917;50.818;6.972;2023-02-21T06:03:46;32.63;;;17.35;;
15635;SDS011;7917;50.818;6.972;2023-02-21T06:06:14;30.05;;;16.75;;
15635;SDS011;7917;50.818;6.972;2023-02-21T06:08:41;28.17;;;16.90;;
15635;SDS011;7917;50.818;6.972;2023-02-21T06:11:09;36.40;;;16.95;;
15635;SDS011;7917;50.818;6.972;2023-02-21T06:13:36;37.58;;;17.95;;
15635;SDS011;7917;50.818;6.972;2023-02-21T06:16:02;32.47;;;16.13;;
15635;SDS011;7917;50.818;6.972;2023-02-21T06:18:29;33.10;;;16.50;;
15635;SDS011;7917;50.818;6.972;2023-02-21T06:20:56;29.38;;;16.33;;
15635;SDS011;7917;50.818;6.972;2023-02-21T06:23:22;33.08;;;17.85;;
15635;SDS011;7917;50.818;6.972;2023-02-21T06:25:49;31.77;;;16.17;;
15635;SDS011;7917;50.818;6.972;2023-02-21T06:28:16;31.30;;;16.23;;
15635;SDS011;7917;50.818;6.972;2023-02-21T06:30:43;30.85;;;17.65;;
15635;SDS011;7917;50.818;6.972;2023-02-21T06:33:09;32.42;;;17.50;;
15635;SDS011;7917;50.818;6.972;2023-02-21T06:35:37;31.38;;;16.80;;
15635;SDS011;7917;50.818;6.972;2023-02-21T06:38:04;32.10;;;16.80;;
15635;SDS011;7917;50.818;6.972;2023-02-21T06:40:30;33.10;;;17.92;;
15635;SDS011;7917;50.818;6.972;2023-02-21T06:42:56;34.85;;;17.75;;
15635;SDS011;7917;50.818;6.972;2023-02-21T06:45:23;32.85;;;17.88;;
15635;SDS011;7917;50.818;6.972;2023-02-21T06:47:50;36.72;;;17.42;;
15635;SDS011;7917;50.818;6.972;2023-02-21T06:50:17;38.22;;;19.58;;
15635;SDS011;7917;50.818;6.972;2023-02-21T06:52:43;53.03;;;24.02;;
15635;SDS011;7917;50.818;6.972;2023-02-21T06:55:11;52.50;;;24.58;;
15635;SDS011;7917;50.818;6.972;2023-02-21T06:57:37;57.08;;;25.02;;
15635;SDS011;7917;50.818;6.972;2023-02-21T07:00:04;57.58;;;26.50;;
15635;SDS011;7917;50.818;6.972;2023-02-21T07:02:32;54.70;;;26.58;;
15635;SDS011;7917;50.818;6.972;2023-02-21T07:04:59;58.47;;;26.05;;
15635;SDS011;7917;50.818;6.972;2023-02-21T07:07:26;48.88;;;22.80;;
15635;SDS011;7917;50.818;6.972;2023-02-21T07:09:52;48.08;;;22.98;;
15635;SDS011;7917;50.818;6.972;2023-02-21T07:12:19;42.63;;;21.85;;
15635;SDS011;7917;50.818;6.972;2023-02-21T07:14:45;47.00;;;23.65;;
15635;SDS011;7917;50.818;6.972;2023-02-21T07:17:12;42.70;;;21.55;;
15635;SDS011;7917;50.818;6.972;2023-02-21T07:19:39;43.80;;;22.17;;
15635;SDS011;7917;50.818;6.972;2023-02-21T07:22:06;46.63;;;23.17;;
15635;SDS011;7917;50.818;6.972;2023-02-21T07:24:37;48.33;;;21.92;;
15635;SDS011;7917;50.818;6.972;2023-02-21T07:27:03;43.90;;;21.50;;
15635;SDS011;7917;50.818;6.972;2023-02-21T07:29:30;41.25;;;21.55;;
15635;SDS011;7917;50.818;6.972;2023-02-21T07:31:56;44.35;;;20.83;;
15635;SDS011;7917;50.818;6.972;2023-02-21T07:34:22;45.67;;;20.73;;
15635;SDS011;7917;50.818;6.972;2023-02-21T07:36:50;41.50;;;21.20;;
15635;SDS011;7917;50.818;6.972;2023-02-21T07:39:18;40.17;;;19.67;;
15635;SDS011;7917;50.818;6.972;2023-02-21T07:41:45;38.78;;;19.80;;
15635;SDS011;7917;50.818;6.972;2023-02-21T07:44:11;39.03;;;20.20;;
15635;SDS011;7917;50.818;6.972;2023-02-21T07:46:38;42.17;;;21.40;;
15635;SDS011;7917;50.818;6.972;2023-02-21T07:49:07;37.38;;;19.23;;
15635;SDS011;7917;50.818;6.972;2023-02-21T07:51:34;38.65;;;20.20;;
15635;SDS011;7917;50.818;6.972;2023-02-21T07:54:02;38.83;;;20.00;;
15635;SDS011;7917;50.818;6.972;2023-02-21T07:56:29;39.95;;;18.67;;
15635;SDS011;7917;50.818;6.972;2023-02-21T07:58:55;39.80;;;19.60;;
15635;SDS011;7917;50.818;6.972;2023-02-21T08:01:22;36.85;;;19.23;;
15635;SDS011;7917;50.818;6.972;2023-02-21T08:03:50;42.80;;;20.23;;
15635;SDS011;7917;50.818;6.972;2023-02-21T08:06:17;39.97;;;19.52;;
15635;SDS011;7917;50.818;6.972;2023-02-21T08:08:44;38.60;;;20.48;;
15635;SDS011;7917;50.818;6.972;2023-02-21T08:11:12;36.65;;;20.08;;
15635;SDS011;7917;50.818;6.972;2023-02-21T08:13:38;37.60;;;19.08;;
15635;SDS011;7917;50.818;6.972;2023-02-21T08:16:05;39.20;;;19.42;;
15635;SDS011;7917;50.818;6.972;2023-02-21T08:18:32;38.97;;;20.65;;
15635;SDS011;7917;50.818;6.972;2023-02-21T08:20:58;40.33;;;19.65;;
15635;SDS011;7917;50.818;6.972;2023-02-21T08:23:29;39.85;;;20.42;;
15635;SDS011;7917;50.818;6.972;2023-02-21T08:25:55;38.97;;;21.25;;
15635;SDS011;7917;50.818;6.972;2023-02-21T08:28:22;36.00;;;19.77;;
15635;SDS011;7917;50.818;6.972;2023-02-21T08:30:49;39.45;;;19.55;;
15635;SDS011;7917;50.818;6.972;2023-02-21T08:33:16;38.00;;;19.95;;
15635;SDS011;7917;50.818;6.972;2023-02-21T08:35:43;38.30;;;19.38;;
15635;SDS011;7917;50.818;6.972;2023-02-21T08:38:10;41.45;;;20.60;;
15635;SDS011;7917;50.818;6.972;2023-02-21T08:40:36;37.25;;;19.05;;
15635;SDS011;7917;50.818;6.972;2023-02-21T08:43:04;39.15;;;19.13;;
15635;SDS011;7917;50.818;6.972;2023-02-21T08:45:31;38.00;;;19.95;;
15635;SDS011;7917;50.818;6.972;2023-02-21T08:47:58;41.60;;;20.13;;
15635;SDS011;7917;50.818;6.972;2023-02-21T08:50:26;37.80;;;20.02;;
15635;SDS011;7917;50.818;6.972;2023-02-21T08:52:54;35.72;;;18.10;;
15635;SDS011;7917;50.818;6.972;2023-02-21T08:55:21;33.22;;;17.35;;
15635;SDS011;7917;50.818;6.972;2023-02-21T08:57:49;33.28;;;17.73;;
15635;SDS011;7917;50.818;6.972;2023-02-21T09:00:16;36.35;;;16.83;;
15635;SDS011;7917;50.818;6.972;2023-02-21T09:02:44;39.88;;;18.92;;
15635;SDS011;7917;50.818;6.972;2023-02-21T09:05:11;39.13;;;18.30;;
15635;SDS011;7917;50.818;6.972;2023-02-21T09:07:40;33.50;;;17.33;;
15635;SDS011;7917;50.818;6.972;2023-02-21T09:10:08;33.17;;;16.83;;
15635;SDS011;7917;50.818;6.972;2023-02-21T09:12:36;32.30;;;16.75;;
15635;SDS011;7917;50.818;6.972;2023-02-21T09:15:04;35.75;;;18.35;;
15635;SDS011;7917;50.818;6.972;2023-02-21T09:17:32;31.85;;;16.23;;
15635;SDS011;7917;50.818;6.972;2023-02-21T09:19:59;34.25;;;17.23;;
15635;SDS011;7917;50.818;6.972;2023-02-21T09:22:29;39.90;;;18.17;;
15635;SDS011;7917;50.818;6.972;2023-02-21T09:24:56;34.45;;;18.00;;
15635;SDS011;7917;50.818;6.972;2023-02-21T09:27:23;38.45;;;18.73;;
15635;SDS011;7917;50.818;6.972;2023-02-21T09:30:01;36.90;;;18.83;;
15635;SDS011;7917;50.818;6.972;2023-02-21T09:32:29;35.15;;;18.60;;
15635;SDS011;7917;50.818;6.972;2023-02-21T09:35:12;41.30;;;19.15;;
15635;SDS011;7917;50.818;6.972;2023-02-21T09:37:39;31.30;;;17.67;;
15635;SDS011;7917;50.818;6.972;2023-02-21T09:40:10;38.67;;;18.80;;
15635;SDS011;7917;50.818;6.972;2023-02-21T09:42:42;34.50;;;18.50;;
15635;SDS011;7917;50.818;6.972;2023-02-21T09:45:12;40.22;;;19.95;;
15635;SDS011;7917;50.818;6.972;2023-02-21T09:47:40;34.60;;;17.70;;
15635;SDS011;7917;50.818;6.972;2023-02-21T09:50:11;32.75;;;18.00;;
15635;SDS011;7917;50.818;6.972;2023-02-21T09:52:40;33.50;;;17.50;;
15635;SDS011;7917;50.818;6.972;2023-02-21T09:55:07;35.67;;;18.23;;
15635;SDS011;7917;50.818;6.972;2023-02-21T09:57:41;38.85;;;18.85;;
15635;SDS011;7917;50.818;6.972;2023-02-21T10:00:15;37.03;;;18.45;;
15635;SDS011;7917;50.818;6.972;2023-02-21T10:02:46;30.50;;;16.67;;
15635;SDS011;7917;50.818;6.972;2023-02-21T10:05:23;33.80;;;17.50;;
15635;SDS011;7917;50.818;6.972;2023-02-21T10:07:58;33.97;;;18.35;;
15635;SDS011;7917;50.818;6.972;2023-02-21T10:10:31;37.92;;;18.67;;
15635;SDS011;7917;50.818;6.972;2023-02-21T10:13:06;31.73;;;17.02;;
15635;SDS011;7917;50.818;6.972;2023-02-21T10:15:44;34.20;;;18.77;;
15635;SDS011;7917;50.818;6.972;2023-02-21T10:18:21;34.83;;;18.92;;
15635;SDS011;7917;50.818;6.972;2023-02-21T10:20:58;37.85;;;18.33;;
15635;SDS011;7917;50.818;6.972;2023-02-21T10:23:32;38.67;;;18.40;;
15635;SDS011;7917;50.818;6.972;2023-02-21T10:26:04;35.30;;;18.80;;
15635;SDS011;7917;50.818;6.972;2023-02-21T10:28:33;35.05;;;18.42;;
15635;SDS011;7917;50.818;6.972;2023-02-21T10:31:02;35.35;;;18.63;;
15635;SDS011;7917;50.818;6.972;2023-02-21T10:33:34;35.25;;;18.60;;
15635;SDS011;7917;50.818;6.972;2023-02-21T10:36:09;42.00;;;21.08;;
15635;SDS011;7917;50.818;6.972;2023-02-21T10:38:37;37.90;;;19.48;;
15635;SDS011;7917;50.818;6.972;2023-02-21T10:41:07;36.65;;;18.92;;
15635;SDS011;7917;50.818;6.972;2023-02-21T10:43:35;37.65;;;19.58;;
15635;SDS011;7917;50.818;6.972;2023-02-21T10:46:07;39.45;;;19.50;;
15635;SDS011;7917;50.818;6.972;2023-02-21T10:48:42;34.40;;;19.88;;
15635;SDS011;7917;50.818;6.972;2023-02-21T10:51:12;37.03;;;19.48;;
15635;SDS011;7917;50.818;6.972;2023-02-21T10:53:42;38.20;;;19.30;;
15635;SDS011;7917;50.818;6.972;2023-02-21T10:56:22;35.10;;;19.33;;
15635;SDS011;7917;50.818;6.972;2023-02-21T10:58:53;33.85;;;17.83;;
15635;SDS011;7917;50.818;6.972;2023-02-21T11:01:34;38.03;;;19.90;;
15635;SDS011;7917;50.818;6.972;2023-02-21T11:04:20;35.58;;;19.88;;
15635;SDS011;7917;50.818;6.972;2023-02-21T11:06:53;40.40;;;20.30;;
15635;SDS011;7917;50.818;6.972;2023-02-21T11:09:33;33.15;;;18.48;;
15635;SDS011;7917;50.818;6.972;2023-02-21T11:12:04;34.75;;;19.05;;
15635;SDS011;7917;50.818;6.972;2023-02-21T11:14:43;36.35;;;18.70;;
15635;SDS011;7917;50.818;6.972;2023-02-21T11:17:27;35.22;;;19.52;;
15635;SDS011;7917;50.818;6.972;2023-02-21T11:19:56;36.85;;;19.83;;
15635;SDS011;7917;50.818;6.972;2023-02-21T11:22:35;37.00;;;20.65;;
15635;SDS011;7917;50.818;6.972;2023-02-21T11:25:14;37.83;;;19.67;;
15635;SDS011;7917;50.818;6.972;2023-02-21T11:27:57;34.83;;;19.17;;
15635;SDS011;7917;50.818;6.972;2023-02-21T11:30:27;37.38;;;19.60;;
15635;SDS011;7917;50.818;6.972;2023-02-21T11:32:56;32.72;;;19.58;;
15635;SDS011;7917;50.818;6.972;2023-02-21T11:35:25;36.70;;;18.65;;
15635;SDS011;7917;50.818;6.972;2023-02-21T11:37:55;35.97;;;19.95;;
15635;SDS011;7917;50.818;6.972;2023-02-21T11:40:30;33.38;;;20.00;;
15635;SDS011;7917;50.818;6.972;2023-02-21T11:43:13;33.30;;;18.42;;
15635;SDS011;7917;50.818;6.972;2023-02-21T11:45:49;34.45;;;18.30;;
15635;SDS011;7917;50.818;6.972;2023-02-21T11:48:27;33.33;;;19.65;;
15635;SDS011;7917;50.818;6.972;2023-02-21T11:50:58;32.30;;;17.73;;
15635;SDS011;7917;50.818;6.972;2023-02-21T11:53:38;31.92;;;17.40;;
15635;SDS011;7917;50.818;6.972;2023-02-21T11:56:20;32.38;;;18.23;;
15635;SDS011;7917;50.818;6.972;2023-02-21T11:59:07;33.13;;;19.00;;
15635;SDS011;7917;50.818;6.972;2023-02-21T12:07:58;32.97;;;18.38;;
15635;SDS011;7917;50.818;6.972;2023-02-21T12:10:42;33.78;;;18.60;;
15635;SDS011;7917;50.818;6.972;2023-02-21T12:13:17;37.22;;;18.95;;
15635;SDS011;7917;50.818;6.972;2023-02-21T12:15:53;31.02;;;17.95;;
15635;SDS011;7917;50.818;6.972;2023-02-21T12:18:33;32.47;;;18.70;;
15635;SDS011;7917;50.818;6.972;2023-02-21T12:21:18;33.15;;;19.75;;
15635;SDS011;7917;50.818;6.972;2023-02-21T12:24:11;31.10;;;17.67;;
15635;SDS011;7917;50.818;6.972;2023-02-21T12:26:52;32.88;;;18.02;;
15635;SDS011;7917;50.818;6.972;2023-02-21T12:29:27;33.28;;;20.13;;
15635;SDS011;7917;50.818;6.972;2023-02-21T12:32:15;41.25;;;23.27;;
15635;SDS011;7917;50.818;6.972;2023-02-21T12:34:55;42.10;;;25.08;;
15635;SDS011;7917;50.818;6.972;2023-02-21T12:37:30;44.03;;;25.13;;
15635;SDS011;7917;50.818;6.972;2023-02-21T12:40:12;41.30;;;24.42;;
15635;SDS011;7917;50.818;6.972;2023-02-21T12:42:55;44.08;;;25.75;;
15635;SDS011;7917;50.818;6.972;2023-02-21T12:45:43;45.65;;;25.88;;
15635;SDS011;7917;50.818;6.972;2023-02-21T12:48:24;44.22;;;26.48;;
15635;SDS011;7917;50.818;6.972;2023-02-21T12:50:58;44.58;;;27.02;;
15635;SDS011;7917;50.818;6.972;2023-02-21T12:53:30;47.92;;;27.83;;
15635;SDS011;7917;50.818;6.972;2023-02-21T12:56:02;45.92;;;27.00;;
15635;SDS011;7917;50.818;6.972;2023-02-21T12:58:33;45.20;;;26.92;;
15635;SDS011;7917;50.818;6.972;2023-02-21T13:01:06;47.10;;;27.75;;
15635;SDS011;7917;50.818;6.972;2023-02-21T13:03:41;48.42;;;27.52;;
15635;SDS011;7917;50.818;6.972;2023-02-21T13:06:17;52.35;;;27.88;;
15635;SDS011;7917;50.818;6.972;2023-02-21T13:08:54;48.05;;;26.55;;
15635;SDS011;7917;50.818;6.972;2023-02-21T13:11:28;60.85;;;27.23;;
15635;SDS011;7917;50.818;6.972;2023-02-21T13:14:00;46.72;;;26.52;;
15635;SDS011;7917;50.818;6.972;2023-02-21T13:16:27;46.42;;;26.25;;
15635;SDS011;7917;50.818;6.972;2023-02-21T13:18:57;55.33;;;26.80;;
15635;SDS011;7917;50.818;6.972;2023-02-21T13:21:32;45.08;;;25.63;;
15635;SDS011;7917;50.818;6.972;2023-02-21T13:24:19;48.20;;;28.42;;
15635;SDS011;7917;50.818;6.972;2023-02-21T13:27:13;45.92;;;26.13;;
15635;SDS011;7917;50.818;6.972;2023-02-21T13:30:01;49.65;;;25.95;;
15635;SDS011;7917;50.818;6.972;2023-02-21T13:32:36;40.97;;;24.67;;
15635;SDS011;7917;50.818;6.972;2023-02-21T13:35:04;46.40;;;26.65;;
15635;SDS011;7917;50.818;6.972;2023-02-21T13:37:34;45.67;;;28.38;;
15635;SDS011;7917;50.818;6.972;2023-02-21T13:40:15;48.47;;;28.23;;
15635;SDS011;7917;50.818;6.972;2023-02-21T13:42:47;48.15;;;27.20;;
15635;SDS011;7917;50.818;6.972;2023-02-21T13:45:27;47.60;;;27.92;;
15635;SDS011;7917;50.818;6.972;2023-02-21T13:50:53;52.60;;;28.23;;
15635;SDS011;7917;50.818;6.972;2023-02-21T13:53:21;53.22;;;28.52;;
15635;SDS011;7917;50.818;6.972;2023-02-21T13:58:39;50.85;;;27.67;;
15635;SDS011;7917;50.818;6.972;2023-02-21T14:07:16;53.63;;;29.77;;
15635;SDS011;7917;50.818;6.972;2023-02-21T14:10:03;53.42;;;30.80;;
15635;SDS011;7917;50.818;6.972;2023-02-21T14:12:30;52.28;;;29.80;;
15635;SDS011;7917;50.818;6.972;2023-02-21T14:15:02;57.63;;;29.17;;
15635;SDS011;7917;50.818;6.972;2023-02-21T14:17:32;49.70;;;29.67;;
15635;SDS011;7917;50.818;6.972;2023-02-21T14:20:01;59.80;;;31.10;;
15635;SDS011;7917;50.818;6.972;2023-02-21T14:22:31;55.72;;;29.02;;
15635;SDS011;7917;50.818;6.972;2023-02-21T14:25:03;51.88;;;29.23;;
15635;SDS011;7917;50.818;6.972;2023-02-21T14:27:40;56.58;;;31.60;;
15635;SDS011;7917;50.818;6.972;2023-02-21T14:30:14;51.85;;;29.42;;
15635;SDS011;7917;50.818;6.972;2023-02-21T14:32:57;54.75;;;29.95;;
15635;SDS011;7917;50.818;6.972;2023-02-21T14:35:32;49.95;;;28.50;;
15635;SDS011;7917;50.818;6.972;2023-02-21T14:38:03;54.05;;;29.58;;
15635;SDS011;7917;50.818;6.972;2023-02-21T14:40:37;53.92;;;28.90;;
15635;SDS011;7917;50.818;6.972;2023-02-21T14:43:20;51.83;;;30.20;;
15635;SDS011;7917;50.818;6.972;2023-02-21T14:45:59;43.95;;;24.27;;
15635;SDS011;7917;50.818;6.972;2023-02-21T14:48:40;51.22;;;28.92;;
15635;SDS011;7917;50.818;6.972;2023-02-21T15:00:24;45.30;;;26.15;;
15635;SDS011;7917;50.818;6.972;2023-02-21T15:03:02;46.38;;;27.02;;
15635;SDS011;7917;50.818;6.972;2023-02-21T15:05:37;47.60;;;26.05;;
15635;SDS011;7917;50.818;6.972;2023-02-21T15:08:11;48.22;;;25.63;;
15635;SDS011;7917;50.818;6.972;2023-02-21T15:10:43;41.72;;;26.20;;
15635;SDS011;7917;50.818;6.972;2023-02-21T15:13:21;44.65;;;26.40;;
15635;SDS011;7917;50.818;6.972;2023-02-21T15:15:54;43.90;;;26.75;;
15635;SDS011;7917;50.818;6.972;2023-02-21T15:18:26;47.58;;;26.08;;
15635;SDS011;7917;50.818;6.972;2023-02-21T15:21:01;45.85;;;25.65;;
15635;SDS011;7917;50.818;6.972;2023-02-21T15:23:30;44.17;;;27.02;;
15635;SDS011;7917;50.818;6.972;2023-02-21T15:25:58;45.53;;;26.33;;
15635;SDS011;7917;50.818;6.972;2023-02-21T15:28:45;49.05;;;28.45;;
15635;SDS011;7917;50.818;6.972;2023-02-21T15:31:27;45.20;;;28.13;;
15635;SDS011;7917;50.818;6.972;2023-02-21T15:33:57;50.67;;;27.73;;
15635;SDS011;7917;50.818;6.972;2023-02-21T15:36:24;50.67;;;27.65;;
15635;SDS011;7917;50.818;6.972;2023-02-21T15:38:53;48.25;;;29.15;;